Time;durP1;ratioP1;P1;durP2;ratioP2;P2;SDS_P1;SDS_P2;PMS_P1;PMS_P2;Temp;Humidity;BMP_temperature;BMP_pressure;BME280_temperature;BME280_humidity;BME280_pressure;Samples;Min_cycle;Max_cycle;Signal;HPM_P1;HPM_P2
2023/10/13 00:02:13;;;;;;;50.28;32.33;;;16.30;99.90;;;;;;5030887;28;20036;-90
2023/10/13 00:04:42;;;;;;;50.10;32.28;;;16.40;99.90;;;;;;5029969;28;20051;-89
2023/10/13 00:07:11;;;;;;;46.35;31.08;;;16.40;99.90;;;;;;5030906;28;20068;-89
2023/10/13 00:09:37;;;;;;;49.28;31.70;;;16.40;99.90;;;;;;5041396;28;20095;-90
2023/10/13 00:12:14;;;;;;;48.17;31.58;;;16.40;99.90;;;;;;5045112;28;20068;-89
2023/10/13 00:14:41;;;;;;;50.13;31.80;;;16.50;99.90;;;;;;5026726;28;20525;-90
2023/10/13 00:17:08;;;;;;;50.70;31.77;;;16.40;99.90;;;;;;5062266;28;20044;-90
2023/10/13 00:19:44;;;;;;;44.97;30.15;;;16.50;99.90;;;;;;5043709;28;20061;-90
2023/10/13 00:22:10;;;;;;;50.88;32.10;;;16.50;99.90;;;;;;5041864;28;20038;-90
2023/10/13 00:24:45;;;;;;;50.13;32.28;;;16.50;99.90;;;;;;5043965;28;20037;-90
2023/10/13 00:30:22;;;;;;;48.63;30.67;;;16.50;99.90;;;;;;5021382;28;20049;-89
2023/10/13 00:32:56;;;;;;;45.13;31.05;;;16.50;99.90;;;;;;5027773;28;20051;-90
2023/10/13 00:35:28;;;;;;;50.60;32.35;;;16.50;99.90;;;;;;5051044;28;20048;-90
2023/10/13 00:37:54;;;;;;;44.15;30.13;;;16.50;99.90;;;;;;5037059;28;20037;-89
2023/10/13 00:40:41;;;;;;;45.05;31.88;;;16.50;99.90;;;;;;5044722;28;20066;-89
2023/10/13 00:45:56;;;;;;;43.25;30.98;;;16.50;99.90;;;;;;5051867;28;20063;-89
2023/10/13 00:48:33;;;;;;;44.45;30.30;;;16.50;99.90;;;;;;5074758;28;20054;-89
2023/10/13 00:51:08;;;;;;;45.75;30.17;;;16.60;99.90;;;;;;5030199;28;20036;-90
2023/10/13 00:53:41;;;;;;;46.63;32.65;;;16.50;99.90;;;;;;5045495;23;20045;-26
2023/10/13 00:56:08;;;;;;;48.92;31.98;;;16.50;99.90;;;;;;5041352;28;20077;-29
2023/10/13 00:58:34;;;;;;;42.72;30.88;;;16.60;99.90;;;;;;5036594;28;20500;-28
2023/10/13 01:01:18;;;;;;;42.20;31.67;;;16.60;99.90;;;;;;5018428;28;20373;-27
2023/10/13 01:03:49;;;;;;;48.10;31.60;;;16.60;99.90;;;;;;5027591;28;20045;-27
2023/10/13 01:06:16;;;;;;;45.92;31.15;;;16.60;99.90;;;;;;5012461;28;20038;-26
2023/10/13 01:08:45;;;;;;;49.90;32.35;;;16.60;99.90;;;;;;5034796;28;20036;-26
2023/10/13 01:11:11;;;;;;;47.88;31.65;;;16.60;99.90;;;;;;5037799;28;20084;-26
2023/10/13 01:13:36;;;;;;;44.35;30.33;;;16.60;99.90;;;;;;5034163;28;20077;-28
2023/10/13 01:16:04;;;;;;;44.50;31.40;;;16.60;99.90;;;;;;5033834;28;20087;-29
2023/10/13 01:18:30;;;;;;;52.53;31.88;;;16.60;99.90;;;;;;5038033;28;20530;-28
2023/10/13 01:20:58;;;;;;;47.45;31.05;;;16.60;99.90;;;;;;5029855;28;20033;-28
2023/10/13 01:23:28;;;;;;;46.47;31.17;;;16.60;99.90;;;;;;5037003;28;20045;-27
2023/10/13 01:25:56;;;;;;;48.53;31.23;;;16.60;99.90;;;;;;5033919;28;20049;-28
2023/10/13 01:28:23;;;;;;;45.00;30.98;;;16.60;99.90;;;;;;5020967;28;20579;-28
2023/10/13 01:30:52;;;;;;;46.60;30.35;;;16.60;99.90;;;;;;5034087;28;20098;-26
2023/10/13 01:33:26;;;;;;;44.50;30.05;;;16.60;99.90;;;;;;5030144;28;20428;-25
2023/10/13 01:35:55;;;;;;;43.53;29.15;;;16.60;99.90;;;;;;5034599;28;20053;-29
2023/10/13 01:38:20;;;;;;;44.28;28.75;;;16.70;99.90;;;;;;5034353;28;20408;-28
2023/10/13 01:40:51;;;;;;;40.17;28.23;;;16.60;99.90;;;;;;5036366;28;20033;-28
2023/10/13 01:43:17;;;;;;;40.47;29.48;;;16.60;99.90;;;;;;5038074;28;20532;-28
2023/10/13 01:45:47;;;;;;;40.10;27.88;;;16.60;99.90;;;;;;5031873;28;20112;-28
2023/10/13 01:48:16;;;;;;;36.47;26.63;;;16.60;99.90;;;;;;5029548;28;20046;-28
2023/10/13 01:50:47;;;;;;;40.40;26.73;;;16.60;99.90;;;;;;5034572;28;20049;-29
2023/10/13 01:53:14;;;;;;;37.10;26.17;;;16.70;99.90;;;;;;5033012;28;20048;-26
2023/10/13 01:55:43;;;;;;;34.50;25.27;;;16.60;99.90;;;;;;5033440;28;20486;-27
2023/10/13 01:58:16;;;;;;;34.20;25.30;;;16.60;99.90;;;;;;5031594;28;20116;-26
2023/10/13 02:00:47;;;;;;;35.13;25.60;;;16.60;99.90;;;;;;5032908;28;20142;-26
2023/10/13 02:03:16;;;;;;;35.25;24.45;;;16.60;99.90;;;;;;5031101;28;20037;-28
2023/10/13 02:05:47;;;;;;;32.90;22.35;;;16.60;99.90;;;;;;5030732;28;20675;-27
2023/10/13 02:08:22;;;;;;;34.33;23.52;;;16.60;99.90;;;;;;5021977;28;20037;-29
2023/10/13 02:10:48;;;;;;;34.53;23.60;;;16.60;99.90;;;;;;5033353;28;20045;-27
2023/10/13 02:13:16;;;;;;;34.40;24.67;;;16.60;99.90;;;;;;5030390;28;20033;-27
2023/10/13 02:15:43;;;;;;;33.53;23.67;;;16.60;99.90;;;;;;5032061;28;20034;-26
2023/10/13 02:18:10;;;;;;;35.13;23.90;;;16.60;99.90;;;;;;5032643;28;20492;-26
2023/10/13 02:20:42;;;;;;;35.70;23.40;;;16.60;99.90;;;;;;5025323;28;20038;-27
2023/10/13 02:23:10;;;;;;;34.70;23.67;;;16.70;99.90;;;;;;5029371;28;20120;-27
2023/10/13 02:25:42;;;;;;;33.47;22.30;;;16.60;99.90;;;;;;5030797;28;20041;-28
2023/10/13 02:28:15;;;;;;;32.67;24.10;;;16.60;99.90;;;;;;5035216;28;20126;-26
2023/10/13 02:30:44;;;;;;;35.30;23.30;;;16.60;99.90;;;;;;5034420;28;20637;-26
2023/10/13 02:33:13;;;;;;;32.45;22.80;;;16.60;99.90;;;;;;5036627;28;20574;-26
2023/10/13 02:35:50;;;;;;;34.63;23.08;;;16.60;99.90;;;;;;5028955;28;20037;-27
2023/10/13 02:38:24;;;;;;;32.38;22.95;;;16.60;99.90;;;;;;5032678;28;20034;-28
2023/10/13 02:40:51;;;;;;;31.23;22.88;;;16.60;99.90;;;;;;5027670;28;20042;-26
2023/10/13 02:43:16;;;;;;;31.80;23.02;;;16.60;99.90;;;;;;5035496;28;20104;-27
2023/10/13 02:45:51;;;;;;;34.78;22.95;;;16.60;99.90;;;;;;5016752;28;20077;-27
2023/10/13 02:48:17;;;;;;;30.23;21.20;;;16.60;99.90;;;;;;5029453;28;20052;-27
2023/10/13 02:50:45;;;;;;;32.13;22.40;;;16.60;99.90;;;;;;5030802;28;20037;-27
2023/10/13 02:53:13;;;;;;;32.75;22.98;;;16.60;99.90;;;;;;5028569;28;20561;-28
2023/10/13 02:55:52;;;;;;;30.30;21.63;;;16.60;99.90;;;;;;5028850;28;20036;-26
2023/10/13 02:58:18;;;;;;;30.58;21.30;;;16.70;99.90;;;;;;5027859;28;20038;-28
2023/10/13 03:00:46;;;;;;;32.55;22.02;;;16.60;99.90;;;;;;5023787;28;20045;-29
2023/10/13 03:03:14;;;;;;;31.40;22.02;;;16.60;99.90;;;;;;5030608;28;20041;-27
2023/10/13 03:05:42;;;;;;;28.90;21.40;;;16.60;99.90;;;;;;5019183;28;20053;-28
2023/10/13 03:08:10;;;;;;;29.52;21.83;;;16.60;99.90;;;;;;5033332;28;20079;-28
2023/10/13 03:10:40;;;;;;;29.67;21.35;;;16.60;99.90;;;;;;5022694;28;20045;-29
2023/10/13 03:13:09;;;;;;;32.13;21.83;;;16.60;99.90;;;;;;5024905;28;20033;-27
2023/10/13 03:15:35;;;;;;;31.73;22.58;;;16.60;99.90;;;;;;5025706;28;20057;-28
2023/10/13 03:18:02;;;;;;;31.15;21.60;;;16.60;99.90;;;;;;5031160;28;20037;-28
2023/10/13 03:20:34;;;;;;;31.67;22.10;;;16.60;99.90;;;;;;5027149;28;20400;-27
2023/10/13 03:23:00;;;;;;;34.08;22.80;;;16.60;99.90;;;;;;5030998;28;20109;-27
2023/10/13 03:25:29;;;;;;;31.00;21.88;;;16.60;99.90;;;;;;5031524;28;20172;-27
2023/10/13 03:30:46;;;;;;;34.42;23.25;;;16.60;99.90;;;;;;5029862;28;20042;-28
2023/10/13 03:33:25;;;;;;;33.05;22.50;;;16.60;99.90;;;;;;5029169;28;20038;-29
2023/10/13 03:35:54;;;;;;;35.10;23.73;;;16.60;99.90;;;;;;5032360;28;20112;-28
2023/10/13 03:38:20;;;;;;;31.17;22.63;;;16.60;99.90;;;;;;5023842;28;20087;-27
2023/10/13 03:40:56;;;;;;;33.13;23.05;;;16.60;99.90;;;;;;5034516;28;20096;-27
2023/10/13 03:43:23;;;;;;;34.33;24.38;;;16.60;99.90;;;;;;5037779;28;20091;-28
2023/10/13 03:46:00;;;;;;;32.15;22.52;;;16.60;99.90;;;;;;5031792;28;20056;-27
2023/10/13 03:51:14;;;;;;;33.10;23.33;;;16.60;99.90;;;;;;5032347;28;20048;-27
2023/10/13 03:53:53;;;;;;;32.67;23.33;;;16.60;99.90;;;;;;5031071;28;20146;-26
2023/10/13 03:56:38;;;;;;;32.65;23.58;;;16.60;99.90;;;;;;5031212;28;20080;-27
2023/10/13 04:04:11;;;;;;;32.33;22.58;;;16.60;99.90;;;;;;5034341;28;20041;-27
2023/10/13 04:17:22;;;;;;;29.38;21.00;;;16.50;99.90;;;;;;5036268;28;20119;-28
2023/10/13 04:30:57;;;;;;;27.77;20.65;;;16.50;99.90;;;;;;5028326;28;20074;-27
2023/10/13 04:41:25;;;;;;;31.23;21.42;;;16.40;99.90;;;;;;5028783;28;20069;-27
2023/10/13 04:43:57;;;;;;;29.27;20.92;;;16.50;99.90;;;;;;5026967;28;20733;-28
2023/10/13 04:47:07;;;;;;;28.52;20.10;;;16.50;99.90;;;;;;5019270;28;20041;-30
2023/10/13 04:54:45;;;;;;;30.52;21.58;;;16.40;99.90;;;;;;5028445;28;20048;-29
2023/10/13 05:47:46;;;;;;;23.98;16.10;;;16.30;99.90;;;;;;5002498;28;20180;-27
2023/10/13 06:28:40;;;;;;;15.93;11.73;;;16.30;99.90;;;;;;5029187;28;20095;-25
2023/10/13 06:31:07;;;;;;;15.13;11.52;;;16.30;99.90;;;;;;5027673;28;20408;-25
2023/10/13 06:33:42;;;;;;;19.00;11.48;;;16.30;99.90;;;;;;5031548;28;20389;-25
2023/10/13 06:36:10;;;;;;;14.27;10.50;;;16.30;99.90;;;;;;5028447;28;20042;-25
2023/10/13 06:38:37;;;;;;;14.48;10.93;;;16.30;99.90;;;;;;5032385;28;20069;-26
2023/10/13 06:41:06;;;;;;;16.67;11.32;;;16.30;99.90;;;;;;5031835;28;20116;-27
2023/10/13 06:43:43;;;;;;;12.68;10.52;;;16.30;99.90;;;;;;5029738;28;20048;-25
2023/10/13 06:46:23;;;;;;;14.82;11.23;;;16.40;99.90;;;;;;5021958;28;20038;-27
2023/10/13 06:48:53;;;;;;;16.17;11.65;;;16.40;99.90;;;;;;5028404;28;20084;-26
2023/10/13 06:51:22;;;;;;;16.73;11.18;;;16.50;99.90;;;;;;5036069;28;20395;-25
2023/10/13 06:53:49;;;;;;;18.23;10.63;;;16.50;99.90;;;;;;5086388;22;20052;-91
2023/10/13 06:56:27;;;;;;;12.85;10.00;;;16.50;99.90;;;;;;5089321;27;20051;-89
2023/10/13 06:58:59;;;;;;;15.07;9.52;;;16.60;99.90;;;;;;5100546;27;20042;-89
2023/10/13 07:01:28;;;;;;;12.38;8.45;;;16.60;99.90;;;;;;5099204;27;20036;-90
2023/10/13 07:04:01;;;;;;;13.48;8.07;;;16.60;99.90;;;;;;5082035;27;20107;-90
2023/10/13 07:06:33;;;;;;;14.52;9.30;;;16.70;99.90;;;;;;5088481;27;20040;-90
2023/10/13 07:09:04;;;;;;;10.73;7.95;;;16.70;99.90;;;;;;5081007;27;20138;-89
2023/10/13 07:11:39;;;;;;;11.82;7.40;;;16.70;99.90;;;;;;5099612;27;20039;-92
2023/10/13 07:14:16;;;;;;;;;;;16.70;99.90;;;;;;5101772;27;20039;-89
2023/10/13 07:17:13;;;;;;;11.95;7.35;;;16.80;99.90;;;;;;5086261;28;19959;-90
2023/10/13 07:19:52;;;;;;;9.90;6.93;;;16.80;99.90;;;;;;5076486;27;20075;-90
2023/10/13 07:22:28;;;;;;;13.90;8.05;;;16.80;99.90;;;;;;5079069;28;20374;-89
2023/10/13 07:24:58;;;;;;;10.40;7.55;;;16.80;99.90;;;;;;5084929;27;20090;-90
2023/10/13 07:27:24;;;;;;;10.57;6.72;;;16.80;99.90;;;;;;5089012;27;20054;-90
2023/10/13 07:29:56;;;;;;;11.50;6.97;;;16.80;99.90;;;;;;5092280;27;20059;-89
2023/10/13 07:32:25;;;;;;;14.82;8.93;;;16.90;99.90;;;;;;5079545;27;20068;-90
2023/10/13 07:34:55;;;;;;;19.25;8.70;;;16.80;99.90;;;;;;5098725;27;20047;-90
2023/10/13 07:37:28;;;;;;;16.25;8.65;;;16.90;99.90;;;;;;5080889;28;20072;-90
2023/10/13 07:39:57;;;;;;;11.77;7.70;;;16.90;99.90;;;;;;5123493;27;20482;-89
2023/10/13 07:42:39;;;;;;;10.50;8.10;;;16.90;99.90;;;;;;5080203;27;21409;-90
2023/10/13 07:45:08;;;;;;;13.65;8.38;;;17.00;99.90;;;;;;5083399;27;20046;-89
2023/10/13 07:47:34;;;;;;;17.92;9.60;;;17.00;99.90;;;;;;5124560;27;20039;-90
2023/10/13 07:50:00;;;;;;;16.92;8.80;;;17.00;99.90;;;;;;5103789;27;20046;-90
2023/10/13 07:52:58;;;;;;;21.90;9.38;;;17.00;99.90;;;;;;5085659;28;20039;-90
2023/10/13 07:55:24;;;;;;;17.40;8.57;;;17.10;99.90;;;;;;5093324;28;20047;-89
2023/10/13 07:57:53;;;;;;;15.85;8.95;;;17.00;99.90;;;;;;5103225;27;20028;-89
2023/10/13 08:00:46;;;;;;;11.48;7.88;;;17.00;99.90;;;;;;5097733;28;20036;-89
2023/10/13 08:06:19;;;;;;;16.55;8.85;;;17.00;99.90;;;;;;5100315;28;20122;-89
2023/10/13 08:08:50;;;;;;;12.20;7.80;;;17.00;99.90;;;;;;5101062;28;20630;-89
2023/10/13 08:11:24;;;;;;;11.38;7.63;;;17.10;99.90;;;;;;5111130;28;20034;-90
2023/10/13 08:13:54;;;;;;;16.95;8.20;;;17.10;99.90;;;;;;5096950;28;20101;-89
2023/10/13 08:16:23;;;;;;;13.75;8.00;;;17.10;99.90;;;;;;5086930;28;20504;-89
2023/10/13 08:18:55;;;;;;;16.98;8.80;;;17.10;99.90;;;;;;5100138;28;20039;-89
2023/10/13 08:21:24;;;;;;;19.60;9.45;;;17.10;99.90;;;;;;5107384;27;20028;-89
2023/10/13 08:34:59;;;;;;;15.65;8.63;;;17.20;99.90;;;;;;5122772;27;20405;-89
2023/10/13 08:48:13;;;;;;;17.10;9.75;;;17.50;99.90;;;;;;5126729;27;20051;-89
2023/10/13 08:53:31;;;;;;;15.50;9.75;;;17.60;99.90;;;;;;5106815;27;20043;-88
2023/10/13 08:56:14;;;;;;;14.35;9.25;;;17.70;99.90;;;;;;5084447;28;20050;-89
2023/10/13 09:04:22;;;;;;;16.27;9.18;;;18.00;99.90;;;;;;5100820;27;20118;-89
2023/10/13 09:12:25;;;;;;;11.80;8.20;;;18.20;99.90;;;;;;5117474;27;20042;-88
2023/10/13 09:14:57;;;;;;;11.18;7.60;;;18.30;99.90;;;;;;5089203;27;20027;-89
2023/10/13 09:17:39;;;;;;;11.70;7.88;;;18.30;99.90;;;;;;5087126;27;20031;-89
2023/10/13 09:25:34;;;;;;;18.15;7.80;;;18.50;99.90;;;;;;5100355;27;20047;-89
2023/10/13 09:28:10;;;;;;;12.05;7.28;;;18.50;99.90;;;;;;5120308;27;20114;-88
2023/10/13 09:30:43;;;;;;;12.15;7.55;;;18.60;99.90;;;;;;5105182;28;20051;-88
2023/10/13 09:33:09;;;;;;;;;;;18.70;99.90;;;;;;5102366;28;20040;-87
2023/10/13 09:35:39;;;;;;;11.30;6.95;;;18.70;99.90;;;;;;5087207;27;19920;-88
2023/10/13 09:38:05;;;;;;;14.65;8.00;;;18.70;99.90;;;;;;5097395;27;20050;-87
2023/10/13 09:43:14;;;;;;;15.77;8.00;;;18.60;99.90;;;;;;5109726;27;20039;-88
2023/10/13 09:45:59;;;;;;;15.82;8.13;;;18.60;99.90;;;;;;5100611;27;20039;-87
2023/10/13 09:48:32;;;;;;;10.95;7.50;;;18.60;99.90;;;;;;5103436;28;20127;-89
2023/10/13 09:51:01;;;;;;;12.48;7.70;;;18.60;99.90;;;;;;5086492;27;20108;-88
2023/10/13 09:53:29;;;;;;;16.35;7.82;;;18.60;99.90;;;;;;5081407;28;20035;-89
2023/10/13 09:56:14;;;;;;;11.00;7.25;;;18.50;99.90;;;;;;5100654;27;20779;-88
2023/10/13 09:58:53;;;;;;;12.95;7.45;;;18.60;99.90;;;;;;5093277;28;20038;-88
2023/10/13 10:01:33;;;;;;;12.80;6.95;;;18.60;99.90;;;;;;5119822;27;20420;-88
2023/10/13 10:04:23;;;;;;;10.93;7.28;;;18.60;99.90;;;;;;5098136;28;20518;-89
2023/10/13 10:07:08;;;;;;;12.45;6.90;;;18.60;99.90;;;;;;5089276;27;20456;-88
2023/10/13 10:09:34;;;;;;;14.48;6.97;;;18.60;99.90;;;;;;5108883;27;20043;-89
2023/10/13 10:12:43;;;;;;;13.13;7.32;;;18.70;99.90;;;;;;5105393;27;20095;-88
2023/10/13 10:15:28;;;;;;;15.48;6.63;;;18.70;99.90;;;;;;5116853;27;20036;-88
2023/10/13 10:17:54;;;;;;;12.10;6.78;;;18.80;99.90;;;;;;5099695;27;20046;-89
2023/10/13 10:20:48;;;;;;;10.50;6.57;;;18.90;99.90;;;;;;5083824;28;20044;-89
2023/10/13 10:23:35;;;;;;;;;;;18.90;99.90;;;;;;5083881;27;20039;-88
2023/10/13 10:26:13;;;;;;;14.13;7.22;;;18.90;99.90;;;;;;5099418;27;19970;-89
2023/10/13 10:28:44;;;;;;;10.43;6.40;;;19.00;99.90;;;;;;5115705;27;20166;-88
2023/10/13 10:31:21;;;;;;;12.35;7.18;;;19.00;99.90;;;;;;5082648;27;20035;-89
2023/10/13 10:33:50;;;;;;;12.60;7.13;;;19.10;99.90;;;;;;5090710;27;20147;-89
2023/10/13 10:36:28;;;;;;;13.70;8.00;;;19.20;99.90;;;;;;5103569;27;20075;-89
2023/10/13 10:38:59;;;;;;;13.02;6.97;;;19.30;99.90;;;;;;5083145;27;20112;-89
2023/10/13 10:44:17;;;;;;;12.93;6.68;;;19.50;99.90;;;;;;5096425;27;20047;-88
2023/10/13 10:46:56;;;;;;;14.00;7.07;;;19.70;99.90;;;;;;5081005;27;20647;-89
2023/10/13 10:49:28;;;;;;;15.35;6.85;;;19.60;99.90;;;;;;5117069;27;20076;-88
2023/10/13 10:52:01;;;;;;;14.93;6.68;;;19.60;99.90;;;;;;5099451;28;20119;-87
2023/10/13 10:54:43;;;;;;;11.05;6.30;;;19.60;99.90;;;;;;5118068;27;20037;-88
2023/10/13 10:57:18;;;;;;;15.85;7.30;;;19.60;99.90;;;;;;5100803;27;20114;-89
2023/10/13 10:59:44;;;;;;;15.27;7.55;;;19.60;99.90;;;;;;5083916;27;20133;-87
2023/10/13 11:02:15;;;;;;;15.25;7.15;;;19.60;99.90;;;;;;5080774;27;20036;-88
2023/10/13 11:04:50;;;;;;;11.48;6.78;;;19.60;99.90;;;;;;5116122;27;20036;-89
2023/10/13 11:07:23;;;;;;;11.52;7.05;;;19.50;99.90;;;;;;5080338;27;20049;-89
2023/10/13 11:09:52;;;;;;;14.05;6.65;;;19.50;99.90;;;;;;5100248;27;20561;-88
2023/10/13 11:12:26;;;;;;;15.43;6.78;;;19.50;99.90;;;;;;5095042;27;20036;-89
2023/10/13 11:15:02;;;;;;;12.70;6.68;;;19.50;99.90;;;;;;5102977;27;20059;-88
2023/10/13 11:18:14;;;;;;;11.35;6.60;;;19.50;99.90;;;;;;5083399;28;20044;-88
2023/10/13 11:20:25;;;;;;;11.15;6.68;;;19.50;99.90;;;;;;5085900;27;20051;-88
2023/10/13 11:22:52;;;;;;;13.45;6.75;;;19.50;99.90;;;;;;5104010;27;20066;-89
2023/10/13 11:25:34;;;;;;;15.30;7.13;;;19.50;99.90;;;;;;5115741;27;20035;-88
2023/10/13 11:28:17;;;;;;;13.65;6.95;;;19.60;99.90;;;;;;5080049;27;20088;-88
2023/10/13 11:30:50;;;;;;;13.60;7.20;;;19.60;99.90;;;;;;5112668;27;20040;-89
2023/10/13 11:33:29;;;;;;;15.60;7.22;;;19.60;99.90;;;;;;5099912;27;20276;-89
2023/10/13 11:36:02;;;;;;;14.55;7.25;;;19.70;99.90;;;;;;5078196;28;20123;-90
2023/10/13 11:46:55;;;;;;;;;;;20.30;99.90;;;;;;5100271;27;20081;-89
2023/10/13 11:52:19;;;;;;;14.93;7.13;;;20.40;99.90;;;;;;5098562;28;20394;-89
2023/10/13 11:54:44;;;;;;;11.30;6.45;;;20.40;99.90;;;;;;5103005;28;20039;-88
2023/10/13 11:57:19;;;;;;;12.55;6.82;;;20.30;99.90;;;;;;5101988;27;20239;-89
2023/10/13 11:59:52;;;;;;;14.18;7.40;;;20.30;99.90;;;;;;5106980;27;20104;-89
2023/10/13 12:07:20;;;;;;;15.02;6.68;;;20.20;99.90;;;;;;5119700;27;20054;-89
2023/10/13 12:12:23;;;;;;;13.20;7.28;;;20.10;99.90;;;;;;5093619;28;20044;-89
2023/10/13 12:14:57;;;;;;;15.70;6.30;;;20.10;99.90;;;;;;5098075;28;20075;-88
2023/10/13 12:17:36;;;;;;;15.07;7.45;;;20.00;99.90;;;;;;5117230;28;20163;-89
2023/10/13 12:20:17;;;;;;;12.88;7.32;;;20.00;99.90;;;;;;5080979;28;20638;-89
2023/10/13 12:22:43;;;;;;;13.85;6.90;;;20.00;99.90;;;;;;5121511;28;20524;-88
2023/10/13 12:25:18;;;;;;;14.05;7.43;;;20.10;99.90;;;;;;5119589;28;20110;-88
2023/10/13 12:27:50;;;;;;;12.30;6.78;;;20.10;99.90;;;;;;5082654;28;20506;-89
2023/10/13 12:30:35;;;;;;;13.45;7.15;;;20.10;99.90;;;;;;5086419;28;20103;-89
2023/10/13 12:33:09;;;;;;;11.57;6.22;;;20.10;99.90;;;;;;5103155;28;20169;-89
2023/10/13 12:36:03;;;;;;;13.15;7.28;;;20.10;99.90;;;;;;5104979;28;20099;-89
2023/10/13 12:49:49;;;;;;;15.45;7.72;;;20.10;99.90;;;;;;5122097;28;20046;-90
2023/10/13 12:52:16;;;;;;;17.90;7.75;;;20.10;99.90;;;;;;5103870;28;20035;-89
2023/10/13 12:54:58;;;;;;;11.50;6.68;;;20.20;99.90;;;;;;5132142;22;20048;-87
2023/10/13 12:57:24;;;;;;;12.82;7.00;;;20.20;99.90;;;;;;5090737;28;20088;-85
2023/10/13 12:59:53;;;;;;;12.93;7.80;;;20.20;99.90;;;;;;5094481;28;20047;-85
2023/10/13 13:02:24;;;;;;;15.65;7.57;;;20.20;99.90;;;;;;5056445;28;20381;-85
2023/10/13 13:04:54;;;;;;;17.45;7.95;;;20.20;99.90;;;;;;5058864;28;20048;-85
2023/10/13 13:07:20;;;;;;;13.90;6.88;;;20.30;99.90;;;;;;5073331;28;20119;-85
2023/10/13 13:09:46;;;;;;;13.43;7.03;;;20.20;99.90;;;;;;5058844;28;20123;-85
2023/10/13 13:12:14;;;;;;;18.13;7.20;;;20.20;99.90;;;;;;5085457;28;20032;-88
2023/10/13 13:14:45;;;;;;;14.70;7.60;;;20.20;99.90;;;;;;5066806;28;20040;-86
2023/10/13 13:17:12;;;;;;;13.00;7.43;;;20.20;99.90;;;;;;5072597;28;20046;-87
2023/10/13 13:19:39;;;;;;;9.93;6.90;;;20.30;99.90;;;;;;5094079;28;20043;-87
2023/10/13 13:22:11;;;;;;;14.55;6.70;;;20.30;99.90;;;;;;5088063;28;20032;-86
2023/10/13 13:24:43;;;;;;;11.63;6.97;;;20.30;99.90;;;;;;5076454;28;20498;-86
2023/10/13 13:27:17;;;;;;;14.50;7.18;;;20.30;99.90;;;;;;5076482;28;20060;-85
2023/10/13 13:29:44;;;;;;;14.65;7.57;;;20.40;99.90;;;;;;5101401;28;20056;-86
2023/10/13 13:32:23;;;;;;;15.77;7.57;;;20.40;99.90;;;;;;5091429;28;20071;-87
2023/10/13 13:35:13;;;;;;;16.83;7.53;;;20.40;99.90;;;;;;5072750;28;20040;-87
2023/10/13 13:37:39;;;;;;;15.45;6.85;;;20.40;99.90;;;;;;5059138;28;20044;-85
2023/10/13 13:40:15;;;;;;;14.95;7.13;;;20.40;99.90;;;;;;5077761;28;20027;-88
2023/10/13 13:42:45;;;;;;;15.10;7.40;;;20.40;99.90;;;;;;5074003;28;20097;-86
2023/10/13 13:45:27;;;;;;;16.35;6.82;;;20.50;99.90;;;;;;5075254;28;20140;-86
2023/10/13 13:47:53;;;;;;;11.80;7.75;;;20.50;99.90;;;;;;5075232;28;20054;-86
2023/10/13 13:50:29;;;;;;;13.65;6.78;;;20.40;99.90;;;;;;5064124;28;20036;-87
2023/10/13 13:52:56;;;;;;;14.57;6.97;;;20.30;99.90;;;;;;5075762;28;20497;-87
2023/10/13 13:55:28;;;;;;;15.82;8.07;;;20.20;99.90;;;;;;5077635;28;20521;-88
2023/10/13 13:57:56;;;;;;;15.47;7.93;;;20.10;99.90;;;;;;5074573;28;20110;-88
2023/10/13 14:00:25;;;;;;;13.90;8.02;;;19.90;99.90;;;;;;5060469;28;20582;-87
2023/10/13 14:02:50;;;;;;;15.27;8.40;;;19.80;99.90;;;;;;5059581;28;20032;-88
2023/10/13 14:05:16;;;;;;;14.07;7.72;;;19.80;99.90;;;;;;5069972;28;20043;-88
2023/10/13 14:07:48;;;;;;;16.17;9.02;;;19.60;99.90;;;;;;5055210;28;20040;-88
2023/10/13 14:10:31;;;;;;;20.23;8.30;;;19.50;99.90;;;;;;5075959;28;20516;-87
2023/10/13 14:13:12;;;;;;;18.73;8.40;;;19.50;99.90;;;;;;5064524;28;20443;-87
2023/10/13 14:15:43;;;;;;;14.70;8.00;;;19.30;99.90;;;;;;5073757;28;20520;-88
2023/10/13 14:18:14;;;;;;;14.60;8.70;;;19.30;99.90;;;;;;5082044;28;20405;-88
2023/10/13 14:20:42;;;;;;;15.95;7.70;;;19.20;99.90;;;;;;5079263;28;20056;-88
2023/10/13 14:23:11;;;;;;;13.68;9.00;;;19.20;99.90;;;;;;5074568;28;20043;-90
2023/10/13 14:25:37;;;;;;;14.38;8.35;;;19.20;99.90;;;;;;5062021;28;20086;-88
2023/10/13 14:28:06;;;;;;;15.90;8.82;;;19.20;99.90;;;;;;5074537;28;20037;-89
2023/10/13 14:30:33;;;;;;;15.60;9.27;;;19.20;99.90;;;;;;5073886;28;20044;-88
2023/10/13 14:32:59;;;;;;;16.55;9.15;;;19.20;99.90;;;;;;5058473;28;20513;-87
2023/10/13 14:35:28;;;;;;;14.60;8.93;;;19.10;99.90;;;;;;5076573;28;20832;-87
2023/10/13 14:37:57;;;;;;;13.55;8.13;;;19.20;99.90;;;;;;5074351;28;20067;-89
2023/10/13 14:40:23;;;;;;;15.07;8.50;;;19.20;99.90;;;;;;5055738;28;20039;-89
2023/10/13 14:42:48;;;;;;;20.15;8.90;;;19.20;99.90;;;;;;5072654;28;20036;-87
2023/10/13 14:45:16;;;;;;;15.43;8.75;;;19.20;99.90;;;;;;5061682;28;20036;-87
2023/10/13 14:47:45;;;;;;;15.88;8.60;;;19.20;99.90;;;;;;5065888;28;20044;-87
2023/10/13 14:50:19;;;;;;;13.07;8.50;;;19.20;99.90;;;;;;5079728;28;20032;-87
2023/10/13 14:52:48;;;;;;;22.58;9.13;;;19.20;99.90;;;;;;5062758;28;20192;-87
2023/10/13 14:55:19;;;;;;;14.75;8.68;;;19.10;99.90;;;;;;5082527;28;20039;-87
2023/10/13 14:57:49;;;;;;;18.15;9.07;;;19.10;99.90;;;;;;5062560;28;20051;-88
2023/10/13 15:00:24;;;;;;;16.30;9.10;;;19.10;99.90;;;;;;5078568;28;20073;-89
2023/10/13 15:02:49;;;;;;;17.50;9.32;;;19.00;99.90;;;;;;5062768;28;20032;-88
2023/10/13 15:05:21;;;;;;;19.38;9.63;;;18.90;99.90;;;;;;5057401;28;20470;-89
2023/10/13 15:07:46;;;;;;;16.33;10.20;;;18.80;99.90;;;;;;5081743;28;20044;-90
2023/10/13 15:10:17;;;;;;;20.20;9.88;;;18.70;99.90;;;;;;5080914;28;20032;-92
2023/10/13 15:12:45;;;;;;;15.88;9.55;;;18.60;99.90;;;;;;5076360;28;20504;-87
2023/10/13 15:15:19;;;;;;;15.55;10.80;;;18.50;99.90;;;;;;5060739;28;20036;-90
2023/10/13 15:17:51;;;;;;;20.63;11.02;;;18.50;99.90;;;;;;5056056;28;20040;-89
2023/10/13 15:20:20;;;;;;;17.15;9.80;;;18.40;99.90;;;;;;5072614;28;20160;-90
2023/10/13 15:22:49;;;;;;;17.35;10.48;;;18.40;99.90;;;;;;5055777;28;20146;-89
2023/10/13 15:25:39;;;;;;;17.55;10.30;;;18.30;99.90;;;;;;5075203;28;20429;-89
2023/10/13 15:28:09;;;;;;;13.90;9.88;;;18.20;99.90;;;;;;5066594;28;20126;-86
2023/10/13 15:30:44;;;;;;;20.02;9.93;;;18.20;99.90;;;;;;5070521;28;20074;-88
2023/10/13 15:33:12;;;;;;;15.52;9.35;;;18.20;99.90;;;;;;5055587;28;20654;-87
2023/10/13 15:35:45;;;;;;;16.77;9.15;;;18.20;99.90;;;;;;5075489;28;20044;-87
2023/10/13 15:38:14;;;;;;;;;;;18.10;99.90;;;;;;5079846;28;20036;-85
2023/10/13 15:40:44;;;;;;;16.10;9.68;;;18.10;99.90;;;;;;5092267;28;19920;-84
2023/10/13 15:43:11;;;;;;;17.08;9.63;;;18.00;99.90;;;;;;5091406;28;20051;-86
2023/10/13 15:45:42;;;;;;;17.73;9.75;;;18.00;99.90;;;;;;5095632;28;20050;-85
2023/10/13 15:48:11;;;;;;;15.15;9.90;;;18.00;99.90;;;;;;5078828;28;20024;-87
2023/10/13 15:50:41;;;;;;;20.13;9.65;;;18.00;99.90;;;;;;5087353;28;20044;-85
2023/10/13 15:53:12;;;;;;;12.52;9.07;;;18.00;99.90;;;;;;5073285;28;20046;-84
2023/10/13 15:55:45;;;;;;;15.20;8.68;;;18.00;99.90;;;;;;5057036;28;20047;-89
2023/10/13 15:58:15;;;;;;;10.27;8.88;;;18.00;99.90;;;;;;5050960;28;20087;-87
2023/10/13 16:00:41;;;;;;;19.15;9.57;;;18.00;99.90;;;;;;5065031;28;20053;-85
2023/10/13 16:03:10;;;;;;;16.80;8.80;;;18.00;99.90;;;;;;5061759;28;21338;-87
2023/10/13 16:05:38;;;;;;;13.50;8.20;;;18.00;99.90;;;;;;5058303;28;20032;-85
2023/10/13 16:08:06;;;;;;;13.70;8.98;;;18.00;99.90;;;;;;5071533;28;20024;-86
2023/10/13 16:10:34;;;;;;;14.48;8.05;;;18.00;99.90;;;;;;5078322;28;20036;-84
2023/10/13 16:13:00;;;;;;;15.50;8.88;;;17.90;99.90;;;;;;5080296;28;20035;-86
2023/10/13 16:15:26;;;;;;;12.98;9.02;;;17.90;99.90;;;;;;5098558;28;20040;-83
2023/10/13 16:17:53;;;;;;;18.38;10.52;;;18.00;99.90;;;;;;5096870;28;20036;-84
2023/10/13 16:20:24;;;;;;;15.93;8.95;;;17.90;99.90;;;;;;5079277;28;20050;-86
2023/10/13 16:22:50;;;;;;;15.82;9.48;;;17.80;99.90;;;;;;5055088;28;20047;-86
2023/10/13 16:25:16;;;;;;;14.70;10.02;;;17.80;99.90;;;;;;5061619;28;20036;-88
2023/10/13 16:27:44;;;;;;;16.05;9.90;;;17.80;99.90;;;;;;5078736;28;20038;-87
2023/10/13 16:30:14;;;;;;;16.83;10.25;;;17.70;99.90;;;;;;5073623;28;20043;-87
2023/10/13 16:32:47;;;;;;;15.07;9.93;;;17.80;99.90;;;;;;5075780;28;20040;-84
2023/10/13 16:35:16;;;;;;;13.68;9.00;;;17.80;99.90;;;;;;5052918;28;20032;-84
2023/10/13 16:37:44;;;;;;;16.80;9.75;;;17.80;99.90;;;;;;5057711;28;20040;-86
2023/10/13 16:40:10;;;;;;;17.30;9.80;;;17.80;99.90;;;;;;5072583;28;20044;-87